sensor_id;sensor_type;location;lat;lon;timestamp;P1;durP1;ratioP1;P2;durP2;ratioP2
7737;SDS011;29398;45.328;5.558;2023-04-25T00:00:25;4.47;;;2.50;;
7737;SDS011;29398;45.328;5.558;2023-04-25T00:01:28;5.93;;;2.60;;
7737;SDS011;29398;45.328;5.558;2023-04-25T00:02:29;7.30;;;2.63;;
7737;SDS011;29398;45.328;5.558;2023-04-25T00:03:32;5.05;;;2.60;;
7737;SDS011;29398;45.328;5.558;2023-04-25T00:04:33;6.78;;;2.80;;
7737;SDS011;29398;45.328;5.558;2023-04-25T00:05:35;3.45;;;2.20;;
7737;SDS011;29398;45.328;5.558;2023-04-25T00:06:37;6.40;;;2.88;;
7737;SDS011;29398;45.328;5.558;2023-04-25T00:07:39;5.28;;;2.85;;
7737;SDS011;29398;45.328;5.558;2023-04-25T00:08:42;2.95;;;2.40;;
7737;SDS011;29398;45.328;5.558;2023-04-25T00:09:44;6.20;;;2.92;;
7737;SDS011;29398;45.328;5.558;2023-04-25T00:10:45;4.25;;;2.85;;
7737;SDS011;29398;45.328;5.558;2023-04-25T00:11:48;5.13;;;2.50;;
7737;SDS011;29398;45.328;5.558;2023-04-25T00:12:51;5.10;;;2.70;;
7737;SDS011;29398;45.328;5.558;2023-04-25T00:13:53;5.15;;;2.97;;
7737;SDS011;29398;45.328;5.558;2023-04-25T00:14:54;5.00;;;2.83;;
7737;SDS011;29398;45.328;5.558;2023-04-25T00:15:58;3.58;;;2.25;;
7737;SDS011;29398;45.328;5.558;2023-04-25T00:17:00;4.22;;;2.50;;
7737;SDS011;29398;45.328;5.558;2023-04-25T00:18:02;3.63;;;2.83;;
7737;SDS011;29398;45.328;5.558;2023-04-25T00:19:04;6.47;;;2.83;;
7737;SDS011;29398;45.328;5.558;2023-04-25T00:20:07;5.05;;;2.92;;
7737;SDS011;29398;45.328;5.558;2023-04-25T00:21:09;4.30;;;2.70;;
7737;SDS011;29398;45.328;5.558;2023-04-25T00:22:11;4.50;;;2.92;;
7737;SDS011;29398;45.328;5.558;2023-04-25T00:23:13;4.90;;;3.08;;
7737;SDS011;29398;45.328;5.558;2023-04-25T00:24:17;4.47;;;2.60;;
7737;SDS011;29398;45.328;5.558;2023-04-25T00:25:19;3.83;;;2.65;;
7737;SDS011;29398;45.328;5.558;2023-04-25T00:26:21;3.30;;;2.40;;
7737;SDS011;29398;45.328;5.558;2023-04-25T00:27:22;3.58;;;2.65;;
7737;SDS011;29398;45.328;5.558;2023-04-25T00:28:25;6.90;;;2.85;;
7737;SDS011;29398;45.328;5.558;2023-04-25T00:29:26;4.60;;;2.90;;
7737;SDS011;29398;45.328;5.558;2023-04-25T00:30:28;3.63;;;2.70;;
7737;SDS011;29398;45.328;5.558;2023-04-25T00:31:29;4.05;;;2.58;;
7737;SDS011;29398;45.328;5.558;2023-04-25T00:32:32;4.68;;;2.50;;
7737;SDS011;29398;45.328;5.558;2023-04-25T00:33:33;3.85;;;2.67;;
7737;SDS011;29398;45.328;5.558;2023-04-25T00:34:35;4.40;;;2.58;;
7737;SDS011;29398;45.328;5.558;2023-04-25T00:35:36;5.03;;;2.70;;
7737;SDS011;29398;45.328;5.558;2023-04-25T00:36:39;5.05;;;2.90;;
7737;SDS011;29398;45.328;5.558;2023-04-25T00:37:40;6.82;;;2.70;;
7737;SDS011;29398;45.328;5.558;2023-04-25T00:38:42;4.05;;;2.70;;
7737;SDS011;29398;45.328;5.558;2023-04-25T00:39:43;4.30;;;2.58;;
7737;SDS011;29398;45.328;5.558;2023-04-25T00:40:45;3.72;;;2.80;;
7737;SDS011;29398;45.328;5.558;2023-04-25T00:41:47;2.72;;;2.50;;
7737;SDS011;29398;45.328;5.558;2023-04-25T00:42:53;6.00;;;2.85;;
7737;SDS011;29398;45.328;5.558;2023-04-25T00:43:56;2.90;;;2.60;;
7737;SDS011;29398;45.328;5.558;2023-04-25T00:44:59;3.38;;;2.67;;
7737;SDS011;29398;45.328;5.558;2023-04-25T00:46:01;4.25;;;3.17;;
7737;SDS011;29398;45.328;5.558;2023-04-25T00:47:03;4.82;;;3.10;;
7737;SDS011;29398;45.328;5.558;2023-04-25T00:48:05;5.35;;;2.95;;
7737;SDS011;29398;45.328;5.558;2023-04-25T00:49:07;3.53;;;2.70;;
7737;SDS011;29398;45.328;5.558;2023-04-25T00:50:09;6.47;;;2.70;;
7737;SDS011;29398;45.328;5.558;2023-04-25T00:51:13;4.22;;;2.92;;
7737;SDS011;29398;45.328;5.558;2023-04-25T00:52:16;3.92;;;2.95;;
7737;SDS011;29398;45.328;5.558;2023-04-25T00:53:18;3.65;;;2.63;;
7737;SDS011;29398;45.328;5.558;2023-04-25T00:54:20;3.85;;;2.90;;
7737;SDS011;29398;45.328;5.558;2023-04-25T00:55:22;2.90;;;2.60;;
7737;SDS011;29398;45.328;5.558;2023-04-25T00:56:25;4.03;;;2.53;;
7737;SDS011;29398;45.328;5.558;2023-04-25T00:57:26;4.60;;;2.60;;
7737;SDS011;29398;45.328;5.558;2023-04-25T00:58:28;3.78;;;2.72;;
7737;SDS011;29398;45.328;5.558;2023-04-25T00:59:31;4.10;;;2.80;;
7737;SDS011;29398;45.328;5.558;2023-04-25T01:00:33;7.30;;;3.00;;
7737;SDS011;29398;45.328;5.558;2023-04-25T01:01:35;4.85;;;2.60;;
7737;SDS011;29398;45.328;5.558;2023-04-25T01:02:37;4.15;;;2.63;;
7737;SDS011;29398;45.328;5.558;2023-04-25T01:03:40;3.65;;;2.53;;
7737;SDS011;29398;45.328;5.558;2023-04-25T01:04:43;4.13;;;2.72;;
7737;SDS011;29398;45.328;5.558;2023-04-25T01:05:45;3.42;;;2.53;;
7737;SDS011;29398;45.328;5.558;2023-04-25T01:06:48;3.92;;;2.75;;
7737;SDS011;29398;45.328;5.558;2023-04-25T01:07:50;3.22;;;2.88;;
7737;SDS011;29398;45.328;5.558;2023-04-25T01:08:52;5.22;;;2.90;;
7737;SDS011;29398;45.328;5.558;2023-04-25T01:09:54;5.05;;;3.00;;
7737;SDS011;29398;45.328;5.558;2023-04-25T01:10:56;3.97;;;2.70;;
7737;SDS011;29398;45.328;5.558;2023-04-25T01:11:57;2.75;;;2.50;;
7737;SDS011;29398;45.328;5.558;2023-04-25T01:13:00;3.92;;;2.58;;
7737;SDS011;29398;45.328;5.558;2023-04-25T01:14:02;6.32;;;2.95;;
7737;SDS011;29398;45.328;5.558;2023-04-25T01:15:05;6.03;;;2.47;;
7737;SDS011;29398;45.328;5.558;2023-04-25T01:16:07;3.45;;;3.10;;
7737;SDS011;29398;45.328;5.558;2023-04-25T01:17:09;4.78;;;2.38;;
7737;SDS011;29398;45.328;5.558;2023-04-25T01:18:11;5.65;;;2.85;;
7737;SDS011;29398;45.328;5.558;2023-04-25T01:19:13;4.07;;;3.15;;
7737;SDS011;29398;45.328;5.558;2023-04-25T01:20:20;5.65;;;3.05;;
7737;SDS011;29398;45.328;5.558;2023-04-25T01:21:25;5.72;;;2.83;;
7737;SDS011;29398;45.328;5.558;2023-04-25T01:22:27;4.38;;;3.05;;
7737;SDS011;29398;45.328;5.558;2023-04-25T01:23:29;4.03;;;2.92;;
7737;SDS011;29398;45.328;5.558;2023-04-25T01:24:33;6.18;;;2.88;;
7737;SDS011;29398;45.328;5.558;2023-04-25T01:25:36;3.10;;;2.70;;
7737;SDS011;29398;45.328;5.558;2023-04-25T01:26:37;4.72;;;2.65;;
7737;SDS011;29398;45.328;5.558;2023-04-25T01:27:41;3.55;;;2.80;;
7737;SDS011;29398;45.328;5.558;2023-04-25T01:28:45;3.80;;;2.45;;
7737;SDS011;29398;45.328;5.558;2023-04-25T01:29:48;4.80;;;2.45;;
7737;SDS011;29398;45.328;5.558;2023-04-25T01:30:50;4.65;;;2.70;;
7737;SDS011;29398;45.328;5.558;2023-04-25T01:31:53;4.63;;;2.78;;
7737;SDS011;29398;45.328;5.558;2023-04-25T01:32:55;2.92;;;2.45;;
7737;SDS011;29398;45.328;5.558;2023-04-25T01:33:57;5.75;;;3.17;;
7737;SDS011;29398;45.328;5.558;2023-04-25T01:34:59;3.90;;;2.58;;
7737;SDS011;29398;45.328;5.558;2023-04-25T01:36:01;3.10;;;2.60;;
7737;SDS011;29398;45.328;5.558;2023-04-25T01:37:03;3.85;;;2.58;;
7737;SDS011;29398;45.328;5.558;2023-04-25T01:38:05;6.07;;;2.60;;
7737;SDS011;29398;45.328;5.558;2023-04-25T01:39:07;3.38;;;2.58;;
7737;SDS011;29398;45.328;5.558;2023-04-25T01:40:09;4.43;;;2.97;;
7737;SDS011;29398;45.328;5.558;2023-04-25T01:41:12;5.85;;;3.10;;
7737;SDS011;29398;45.328;5.558;2023-04-25T01:42:17;6.35;;;2.50;;
7737;SDS011;29398;45.328;5.558;2023-04-25T01:43:19;4.30;;;2.83;;
7737;SDS011;29398;45.328;5.558;2023-04-25T01:44:21;3.55;;;2.88;;
7737;SDS011;29398;45.328;5.558;2023-04-25T01:45:22;6.07;;;2.63;;
7737;SDS011;29398;45.328;5.558;2023-04-25T01:46:25;3.50;;;2.25;;
7737;SDS011;29398;45.328;5.558;2023-04-25T01:47:27;3.63;;;2.53;;
7737;SDS011;29398;45.328;5.558;2023-04-25T01:48:29;3.90;;;2.50;;
7737;SDS011;29398;45.328;5.558;2023-04-25T01:49:30;4.78;;;2.50;;
7737;SDS011;29398;45.328;5.558;2023-04-25T01:50:32;6.20;;;2.60;;
7737;SDS011;29398;45.328;5.558;2023-04-25T01:51:34;2.83;;;2.60;;
7737;SDS011;29398;45.328;5.558;2023-04-25T01:52:37;5.57;;;2.90;;
7737;SDS011;29398;45.328;5.558;2023-04-25T01:53:39;5.20;;;2.75;;
7737;SDS011;29398;45.328;5.558;2023-04-25T01:54:41;3.80;;;2.83;;
7737;SDS011;29398;45.328;5.558;2023-04-25T01:55:45;6.70;;;2.83;;
7737;SDS011;29398;45.328;5.558;2023-04-25T01:56:50;3.35;;;2.47;;
7737;SDS011;29398;45.328;5.558;2023-04-25T01:57:51;4.88;;;2.92;;
7737;SDS011;29398;45.328;5.558;2023-04-25T01:58:59;6.00;;;2.65;;
7737;SDS011;29398;45.328;5.558;2023-04-25T02:00:23;5.18;;;2.70;;
7737;SDS011;29398;45.328;5.558;2023-04-25T02:01:25;3.45;;;2.40;;
7737;SDS011;29398;45.328;5.558;2023-04-25T02:02:44;5.10;;;2.90;;
7737;SDS011;29398;45.328;5.558;2023-04-25T02:04:03;3.50;;;2.70;;
7737;SDS011;29398;45.328;5.558;2023-04-25T02:05:08;3.58;;;2.30;;
7737;SDS011;29398;45.328;5.558;2023-04-25T02:06:13;4.65;;;2.70;;
7737;SDS011;29398;45.328;5.558;2023-04-25T02:07:17;3.72;;;2.80;;
7737;SDS011;29398;45.328;5.558;2023-04-25T02:08:28;5.65;;;2.50;;
7737;SDS011;29398;45.328;5.558;2023-04-25T02:09:30;6.22;;;2.78;;
7737;SDS011;29398;45.328;5.558;2023-04-25T02:10:33;4.63;;;2.63;;
7737;SDS011;29398;45.328;5.558;2023-04-25T02:11:43;5.90;;;2.70;;
7737;SDS011;29398;45.328;5.558;2023-04-25T02:13:11;3.92;;;2.80;;
7737;SDS011;29398;45.328;5.558;2023-04-25T02:14:28;3.78;;;2.90;;
7737;SDS011;29398;45.328;5.558;2023-04-25T02:15:37;4.68;;;2.53;;
7737;SDS011;29398;45.328;5.558;2023-04-25T02:16:49;3.33;;;2.80;;
7737;SDS011;29398;45.328;5.558;2023-04-25T02:17:51;5.80;;;3.50;;
7737;SDS011;29398;45.328;5.558;2023-04-25T02:18:54;5.32;;;3.22;;
7737;SDS011;29398;45.328;5.558;2023-04-25T02:19:55;4.55;;;2.78;;
7737;SDS011;29398;45.328;5.558;2023-04-25T02:20:58;3.35;;;2.60;;
7737;SDS011;29398;45.328;5.558;2023-04-25T02:21:59;4.10;;;3.08;;
7737;SDS011;29398;45.328;5.558;2023-04-25T02:23:01;5.90;;;2.88;;
7737;SDS011;29398;45.328;5.558;2023-04-25T02:24:05;4.53;;;2.75;;
7737;SDS011;29398;45.328;5.558;2023-04-25T02:25:08;4.22;;;3.15;;
7737;SDS011;29398;45.328;5.558;2023-04-25T02:26:10;4.25;;;3.45;;
7737;SDS011;29398;45.328;5.558;2023-04-25T02:27:13;7.70;;;3.53;;
7737;SDS011;29398;45.328;5.558;2023-04-25T02:28:14;5.15;;;3.28;;
7737;SDS011;29398;45.328;5.558;2023-04-25T02:29:16;3.88;;;3.40;;
7737;SDS011;29398;45.328;5.558;2023-04-25T02:30:19;3.92;;;3.35;;
7737;SDS011;29398;45.328;5.558;2023-04-25T02:31:23;5.18;;;3.40;;
7737;SDS011;29398;45.328;5.558;2023-04-25T02:32:25;5.75;;;3.25;;
7737;SDS011;29398;45.328;5.558;2023-04-25T02:33:28;5.88;;;3.38;;
7737;SDS011;29398;45.328;5.558;2023-04-25T02:34:29;6.00;;;4.00;;
7737;SDS011;29398;45.328;5.558;2023-04-25T02:35:34;6.68;;;3.60;;
7737;SDS011;29398;45.328;5.558;2023-04-25T02:36:36;4.40;;;3.63;;
7737;SDS011;29398;45.328;5.558;2023-04-25T02:37:38;7.32;;;4.03;;
7737;SDS011;29398;45.328;5.558;2023-04-25T02:38:40;5.50;;;3.30;;
7737;SDS011;29398;45.328;5.558;2023-04-25T02:39:44;5.18;;;3.67;;
7737;SDS011;29398;45.328;5.558;2023-04-25T02:40:46;4.03;;;3.13;;
7737;SDS011;29398;45.328;5.558;2023-04-25T02:41:48;4.30;;;3.40;;
7737;SDS011;29398;45.328;5.558;2023-04-25T02:42:49;4.30;;;3.50;;
7737;SDS011;29398;45.328;5.558;2023-04-25T02:43:52;5.25;;;3.20;;
7737;SDS011;29398;45.328;5.558;2023-04-25T02:44:54;5.25;;;3.38;;
7737;SDS011;29398;45.328;5.558;2023-04-25T02:45:56;3.92;;;3.13;;
7737;SDS011;29398;45.328;5.558;2023-04-25T02:46:57;5.70;;;3.70;;
7737;SDS011;29398;45.328;5.558;2023-04-25T02:47:59;4.97;;;3.45;;
7737;SDS011;29398;45.328;5.558;2023-04-25T02:49:00;4.75;;;3.45;;
7737;SDS011;29398;45.328;5.558;2023-04-25T02:50:03;5.82;;;3.17;;
7737;SDS011;29398;45.328;5.558;2023-04-25T02:51:05;6.88;;;3.40;;
7737;SDS011;29398;45.328;5.558;2023-04-25T02:52:08;8.43;;;3.75;;
7737;SDS011;29398;45.328;5.558;2023-04-25T02:53:09;5.10;;;3.10;;
7737;SDS011;29398;45.328;5.558;2023-04-25T02:54:18;4.18;;;3.05;;
7737;SDS011;29398;45.328;5.558;2023-04-25T02:55:23;4.07;;;3.22;;
7737;SDS011;29398;45.328;5.558;2023-04-25T02:56:26;5.80;;;3.28;;
7737;SDS011;29398;45.328;5.558;2023-04-25T02:57:27;7.18;;;3.05;;
7737;SDS011;29398;45.328;5.558;2023-04-25T02:58:30;6.85;;;3.20;;
7737;SDS011;29398;45.328;5.558;2023-04-25T02:59:31;5.03;;;3.00;;
7737;SDS011;29398;45.328;5.558;2023-04-25T03:00:33;4.15;;;2.80;;
7737;SDS011;29398;45.328;5.558;2023-04-25T03:01:36;4.80;;;2.78;;
7737;SDS011;29398;45.328;5.558;2023-04-25T03:02:37;5.63;;;3.13;;
7737;SDS011;29398;45.328;5.558;2023-04-25T03:03:39;3.80;;;2.70;;
7737;SDS011;29398;45.328;5.558;2023-04-25T03:04:40;5.97;;;3.03;;
7737;SDS011;29398;45.328;5.558;2023-04-25T03:05:42;3.92;;;2.92;;
7737;SDS011;29398;45.328;5.558;2023-04-25T03:06:44;7.32;;;3.40;;
7737;SDS011;29398;45.328;5.558;2023-04-25T03:07:46;5.72;;;3.35;;
7737;SDS011;29398;45.328;5.558;2023-04-25T03:08:47;3.63;;;3.00;;
7737;SDS011;29398;45.328;5.558;2023-04-25T03:09:50;5.53;;;2.97;;
7737;SDS011;29398;45.328;5.558;2023-04-25T03:10:53;5.97;;;3.10;;
7737;SDS011;29398;45.328;5.558;2023-04-25T03:11:56;4.07;;;3.00;;
7737;SDS011;29398;45.328;5.558;2023-04-25T03:12:58;5.80;;;3.50;;
7737;SDS011;29398;45.328;5.558;2023-04-25T03:13:59;4.18;;;3.30;;
7737;SDS011;29398;45.328;5.558;2023-04-25T03:15:01;6.22;;;3.45;;
7737;SDS011;29398;45.328;5.558;2023-04-25T03:16:03;4.65;;;3.28;;
7737;SDS011;29398;45.328;5.558;2023-04-25T03:17:06;3.30;;;3.00;;
7737;SDS011;29398;45.328;5.558;2023-04-25T03:18:09;5.78;;;3.10;;
7737;SDS011;29398;45.328;5.558;2023-04-25T03:19:13;5.70;;;3.28;;
7737;SDS011;29398;45.328;5.558;2023-04-25T03:20:16;5.30;;;3.05;;
7737;SDS011;29398;45.328;5.558;2023-04-25T03:21:18;4.45;;;3.00;;
7737;SDS011;29398;45.328;5.558;2023-04-25T03:22:19;4.53;;;2.92;;
7737;SDS011;29398;45.328;5.558;2023-04-25T03:23:21;5.78;;;3.25;;
7737;SDS011;29398;45.328;5.558;2023-04-25T03:24:22;4.53;;;2.78;;
7737;SDS011;29398;45.328;5.558;2023-04-25T03:25:24;5.82;;;3.00;;
7737;SDS011;29398;45.328;5.558;2023-04-25T03:26:27;6.15;;;3.70;;
7737;SDS011;29398;45.328;5.558;2023-04-25T03:27:29;5.30;;;2.88;;
7737;SDS011;29398;45.328;5.558;2023-04-25T03:28:30;6.38;;;3.30;;
7737;SDS011;29398;45.328;5.558;2023-04-25T03:29:32;4.40;;;2.97;;
7737;SDS011;29398;45.328;5.558;2023-04-25T03:30:37;5.45;;;3.20;;
7737;SDS011;29398;45.328;5.558;2023-04-25T03:31:39;4.30;;;3.13;;
7737;SDS011;29398;45.328;5.558;2023-04-25T03:32:41;9.05;;;3.80;;
7737;SDS011;29398;45.328;5.558;2023-04-25T03:33:43;5.30;;;3.63;;
7737;SDS011;29398;45.328;5.558;2023-04-25T03:34:44;7.35;;;3.53;;
7737;SDS011;29398;45.328;5.558;2023-04-25T03:35:47;6.88;;;3.45;;
7737;SDS011;29398;45.328;5.558;2023-04-25T03:36:48;5.32;;;3.60;;
7737;SDS011;29398;45.328;5.558;2023-04-25T03:37:50;5.32;;;3.65;;
7737;SDS011;29398;45.328;5.558;2023-04-25T03:38:58;4.25;;;3.67;;
7737;SDS011;29398;45.328;5.558;2023-04-25T03:40:02;7.53;;;3.83;;
7737;SDS011;29398;45.328;5.558;2023-04-25T03:41:24;4.00;;;3.10;;
7737;SDS011;29398;45.328;5.558;2023-04-25T03:42:31;5.03;;;3.15;;
7737;SDS011;29398;45.328;5.558;2023-04-25T03:43:32;6.88;;;3.97;;
7737;SDS011;29398;45.328;5.558;2023-04-25T03:44:39;4.95;;;3.70;;
7737;SDS011;29398;45.328;5.558;2023-04-25T03:45:40;5.95;;;3.83;;
7737;SDS011;29398;45.328;5.558;2023-04-25T03:46:42;6.05;;;4.00;;
7737;SDS011;29398;45.328;5.558;2023-04-25T03:47:44;6.35;;;4.07;;
7737;SDS011;29398;45.328;5.558;2023-04-25T03:48:46;7.80;;;3.78;;
7737;SDS011;29398;45.328;5.558;2023-04-25T03:49:55;6.45;;;3.90;;
7737;SDS011;29398;45.328;5.558;2023-04-25T03:50:57;6.15;;;3.92;;
7737;SDS011;29398;45.328;5.558;2023-04-25T03:51:59;6.22;;;3.88;;
7737;SDS011;29398;45.328;5.558;2023-04-25T03:53:02;5.28;;;3.67;;
7737;SDS011;29398;45.328;5.558;2023-04-25T03:54:12;4.63;;;3.72;;
7737;SDS011;29398;45.328;5.558;2023-04-25T03:55:34;5.53;;;3.53;;
7737;SDS011;29398;45.328;5.558;2023-04-25T03:56:37;5.47;;;3.97;;
7737;SDS011;29398;45.328;5.558;2023-04-25T03:57:50;8.35;;;3.97;;
7737;SDS011;29398;45.328;5.558;2023-04-25T03:58:52;8.98;;;4.05;;
7737;SDS011;29398;45.328;5.558;2023-04-25T03:59:56;6.20;;;3.72;;
7737;SDS011;29398;45.328;5.558;2023-04-25T04:00:58;6.75;;;3.72;;
7737;SDS011;29398;45.328;5.558;2023-04-25T04:01:59;8.23;;;3.42;;
7737;SDS011;29398;45.328;5.558;2023-04-25T04:03:02;4.32;;;3.50;;
7737;SDS011;29398;45.328;5.558;2023-04-25T04:04:03;5.93;;;3.67;;
7737;SDS011;29398;45.328;5.558;2023-04-25T04:05:06;5.93;;;3.85;;
7737;SDS011;29398;45.328;5.558;2023-04-25T04:06:10;8.93;;;4.13;;
7737;SDS011;29398;45.328;5.558;2023-04-25T04:07:16;6.80;;;4.32;;
7737;SDS011;29398;45.328;5.558;2023-04-25T04:08:20;6.65;;;3.33;;
7737;SDS011;29398;45.328;5.558;2023-04-25T04:09:23;7.50;;;3.83;;
7737;SDS011;29398;45.328;5.558;2023-04-25T04:10:24;8.27;;;3.65;;
7737;SDS011;29398;45.328;5.558;2023-04-25T04:11:26;6.07;;;3.67;;
7737;SDS011;29398;45.328;5.558;2023-04-25T04:12:27;6.40;;;3.20;;
7737;SDS011;29398;45.328;5.558;2023-04-25T04:13:31;6.45;;;3.25;;
7737;SDS011;29398;45.328;5.558;2023-04-25T04:14:34;5.22;;;3.28;;
7737;SDS011;29398;45.328;5.558;2023-04-25T04:15:35;6.03;;;3.42;;
7737;SDS011;29398;45.328;5.558;2023-04-25T04:16:37;5.70;;;3.42;;
7737;SDS011;29398;45.328;5.558;2023-04-25T04:17:38;8.60;;;3.90;;
7737;SDS011;29398;45.328;5.558;2023-04-25T04:18:42;6.18;;;3.55;;
7737;SDS011;29398;45.328;5.558;2023-04-25T04:19:43;4.55;;;3.33;;
7737;SDS011;29398;45.328;5.558;2023-04-25T04:20:52;6.30;;;3.78;;
7737;SDS011;29398;45.328;5.558;2023-04-25T04:21:53;5.70;;;3.60;;
7737;SDS011;29398;45.328;5.558;2023-04-25T04:22:55;5.50;;;3.40;;
7737;SDS011;29398;45.328;5.558;2023-04-25T04:23:58;6.50;;;3.30;;
7737;SDS011;29398;45.328;5.558;2023-04-25T04:25:04;8.82;;;3.70;;
7737;SDS011;29398;45.328;5.558;2023-04-25T04:26:26;6.88;;;3.92;;
7737;SDS011;29398;45.328;5.558;2023-04-25T04:27:41;5.57;;;3.70;;
7737;SDS011;29398;45.328;5.558;2023-04-25T04:28:59;8.05;;;3.58;;
7737;SDS011;29398;45.328;5.558;2023-04-25T04:30:12;8.52;;;3.28;;
7737;SDS011;29398;45.328;5.558;2023-04-25T04:31:26;6.43;;;3.40;;
7737;SDS011;29398;45.328;5.558;2023-04-25T04:32:28;5.60;;;3.20;;
7737;SDS011;29398;45.328;5.558;2023-04-25T04:33:31;7.13;;;3.88;;
7737;SDS011;29398;45.328;5.558;2023-04-25T04:34:36;5.78;;;3.50;;
7737;SDS011;29398;45.328;5.558;2023-04-25T04:35:38;4.35;;;2.90;;
7737;SDS011;29398;45.328;5.558;2023-04-25T04:36:40;6.57;;;3.58;;
7737;SDS011;29398;45.328;5.558;2023-04-25T04:37:42;5.07;;;3.05;;
7737;SDS011;29398;45.328;5.558;2023-04-25T04:38:46;6.03;;;3.38;;
7737;SDS011;29398;45.328;5.558;2023-04-25T04:39:56;4.50;;;2.70;;
7737;SDS011;29398;45.328;5.558;2023-04-25T04:41:18;6.90;;;3.40;;
7737;SDS011;29398;45.328;5.558;2023-04-25T04:42:43;6.20;;;3.25;;
7737;SDS011;29398;45.328;5.558;2023-04-25T04:44:00;6.83;;;3.17;;
7737;SDS011;29398;45.328;5.558;2023-04-25T04:45:24;5.95;;;3.40;;
7737;SDS011;29398;45.328;5.558;2023-04-25T04:46:55;5.40;;;3.15;;
7737;SDS011;29398;45.328;5.558;2023-04-25T04:48:04;5.40;;;3.13;;
7737;SDS011;29398;45.328;5.558;2023-04-25T04:49:35;4.18;;;3.10;;
7737;SDS011;29398;45.328;5.558;2023-04-25T04:51:06;8.48;;;3.33;;
7737;SDS011;29398;45.328;5.558;2023-04-25T04:52:27;4.05;;;2.70;;
7737;SDS011;29398;45.328;5.558;2023-04-25T04:53:46;4.22;;;2.80;;
7737;SDS011;29398;45.328;5.558;2023-04-25T04:55:17;3.72;;;3.05;;
7737;SDS011;29398;45.328;5.558;2023-04-25T04:56:40;4.07;;;2.90;;
7737;SDS011;29398;45.328;5.558;2023-04-25T04:58:17;7.53;;;3.53;;
7737;SDS011;29398;45.328;5.558;2023-04-25T04:59:35;7.00;;;3.17;;
7737;SDS011;29398;45.328;5.558;2023-04-25T05:01:15;8.65;;;3.30;;
7737;SDS011;29398;45.328;5.558;2023-04-25T05:04:01;5.35;;;2.80;;
7737;SDS011;29398;45.328;5.558;2023-04-25T05:05:21;5.53;;;3.45;;
7737;SDS011;29398;45.328;5.558;2023-04-25T05:06:52;4.65;;;2.97;;
7737;SDS011;29398;45.328;5.558;2023-04-25T05:08:18;5.93;;;3.05;;
7737;SDS011;29398;45.328;5.558;2023-04-25T05:09:28;10.07;;;3.53;;
7737;SDS011;29398;45.328;5.558;2023-04-25T05:10:39;5.82;;;2.80;;
7737;SDS011;29398;45.328;5.558;2023-04-25T05:11:53;4.18;;;2.88;;
7737;SDS011;29398;45.328;5.558;2023-04-25T05:13:33;6.38;;;2.65;;
7737;SDS011;29398;45.328;5.558;2023-04-25T05:14:56;7.95;;;3.60;;
7737;SDS011;29398;45.328;5.558;2023-04-25T05:16:25;8.70;;;3.35;;
7737;SDS011;29398;45.328;5.558;2023-04-25T05:17:50;4.65;;;2.95;;
7737;SDS011;29398;45.328;5.558;2023-04-25T05:19:06;7.10;;;3.08;;
7737;SDS011;29398;45.328;5.558;2023-04-25T05:20:17;5.88;;;3.00;;
7737;SDS011;29398;45.328;5.558;2023-04-25T05:21:35;5.85;;;2.97;;
7737;SDS011;29398;45.328;5.558;2023-04-25T05:22:46;6.90;;;3.00;;
7737;SDS011;29398;45.328;5.558;2023-04-25T05:23:53;5.78;;;3.17;;
7737;SDS011;29398;45.328;5.558;2023-04-25T05:25:16;7.03;;;2.95;;
7737;SDS011;29398;45.328;5.558;2023-04-25T05:26:36;4.78;;;2.70;;
7737;SDS011;29398;45.328;5.558;2023-04-25T05:28:17;5.28;;;3.03;;
7737;SDS011;29398;45.328;5.558;2023-04-25T05:29:43;6.07;;;2.92;;
7737;SDS011;29398;45.328;5.558;2023-04-25T05:30:54;5.63;;;3.00;;
7737;SDS011;29398;45.328;5.558;2023-04-25T05:32:03;5.32;;;2.65;;
7737;SDS011;29398;45.328;5.558;2023-04-25T05:33:06;7.10;;;3.03;;
7737;SDS011;29398;45.328;5.558;2023-04-25T05:34:08;4.60;;;2.88;;
7737;SDS011;29398;45.328;5.558;2023-04-25T05:35:29;5.88;;;2.95;;
7737;SDS011;29398;45.328;5.558;2023-04-25T05:36:31;4.68;;;2.88;;
7737;SDS011;29398;45.328;5.558;2023-04-25T05:37:33;5.97;;;3.03;;
7737;SDS011;29398;45.328;5.558;2023-04-25T05:38:47;5.20;;;2.85;;
7737;SDS011;29398;45.328;5.558;2023-04-25T05:39:55;8.65;;;3.30;;
7737;SDS011;29398;45.328;5.558;2023-04-25T05:41:20;5.55;;;2.95;;
7737;SDS011;29398;45.328;5.558;2023-04-25T05:42:28;5.30;;;2.67;;
7737;SDS011;29398;45.328;5.558;2023-04-25T05:43:49;4.22;;;2.70;;
7737;SDS011;29398;45.328;5.558;2023-04-25T05:45:19;4.63;;;2.42;;
7737;SDS011;29398;45.328;5.558;2023-04-25T05:46:44;4.80;;;2.83;;
7737;SDS011;29398;45.328;5.558;2023-04-25T05:48:08;4.25;;;2.80;;
7737;SDS011;29398;45.328;5.558;2023-04-25T05:49:30;5.63;;;2.92;;
7737;SDS011;29398;45.328;5.558;2023-04-25T05:50:47;5.28;;;2.63;;
7737;SDS011;29398;45.328;5.558;2023-04-25T05:52:07;9.88;;;3.55;;
7737;SDS011;29398;45.328;5.558;2023-04-25T05:53:17;4.55;;;2.92;;
7737;SDS011;29398;45.328;5.558;2023-04-25T05:54:19;5.43;;;2.80;;
7737;SDS011;29398;45.328;5.558;2023-04-25T05:55:22;6.45;;;2.67;;
7737;SDS011;29398;45.328;5.558;2023-04-25T05:56:23;7.32;;;3.55;;
7737;SDS011;29398;45.328;5.558;2023-04-25T05:57:27;6.35;;;2.95;;
7737;SDS011;29398;45.328;5.558;2023-04-25T05:58:30;5.90;;;2.88;;
7737;SDS011;29398;45.328;5.558;2023-04-25T05:59:33;6.85;;;2.88;;
7737;SDS011;29398;45.328;5.558;2023-04-25T06:00:35;5.63;;;3.25;;
7737;SDS011;29398;45.328;5.558;2023-04-25T06:01:38;9.43;;;2.97;;
7737;SDS011;29398;45.328;5.558;2023-04-25T06:02:40;7.68;;;3.20;;
7737;SDS011;29398;45.328;5.558;2023-04-25T06:03:43;6.28;;;3.10;;
7737;SDS011;29398;45.328;5.558;2023-04-25T06:04:45;5.20;;;3.22;;
7737;SDS011;29398;45.328;5.558;2023-04-25T06:05:46;7.25;;;2.90;;
7737;SDS011;29398;45.328;5.558;2023-04-25T06:06:48;6.18;;;3.38;;
7737;SDS011;29398;45.328;5.558;2023-04-25T06:07:50;8.77;;;3.20;;
7737;SDS011;29398;45.328;5.558;2023-04-25T06:08:52;6.25;;;2.97;;
7737;SDS011;29398;45.328;5.558;2023-04-25T06:09:57;7.50;;;3.50;;
7737;SDS011;29398;45.328;5.558;2023-04-25T06:11:00;6.45;;;3.47;;
7737;SDS011;29398;45.328;5.558;2023-04-25T06:12:01;6.25;;;3.30;;
7737;SDS011;29398;45.328;5.558;2023-04-25T06:13:04;6.43;;;2.72;;
7737;SDS011;29398;45.328;5.558;2023-04-25T06:14:08;6.70;;;2.95;;
7737;SDS011;29398;45.328;5.558;2023-04-25T06:15:14;7.72;;;3.03;;
7737;SDS011;29398;45.328;5.558;2023-04-25T06:16:16;4.50;;;3.10;;
7737;SDS011;29398;45.328;5.558;2023-04-25T06:17:18;6.13;;;3.35;;
7737;SDS011;29398;45.328;5.558;2023-04-25T06:18:19;5.90;;;2.90;;
7737;SDS011;29398;45.328;5.558;2023-04-25T06:19:21;7.72;;;3.10;;
7737;SDS011;29398;45.328;5.558;2023-04-25T06:20:22;7.05;;;3.63;;
7737;SDS011;29398;45.328;5.558;2023-04-25T06:21:25;9.32;;;3.42;;
7737;SDS011;29398;45.328;5.558;2023-04-25T06:22:27;7.03;;;2.92;;
7737;SDS011;29398;45.328;5.558;2023-04-25T06:23:30;6.45;;;3.50;;
7737;SDS011;29398;45.328;5.558;2023-04-25T06:24:36;6.40;;;2.70;;
7737;SDS011;29398;45.328;5.558;2023-04-25T06:25:40;5.95;;;3.42;;
7737;SDS011;29398;45.328;5.558;2023-04-25T06:26:41;7.35;;;3.20;;
7737;SDS011;29398;45.328;5.558;2023-04-25T06:27:44;7.45;;;3.33;;
7737;SDS011;29398;45.328;5.558;2023-04-25T06:28:46;8.13;;;3.78;;
7737;SDS011;29398;45.328;5.558;2023-04-25T06:29:49;4.75;;;2.80;;
7737;SDS011;29398;45.328;5.558;2023-04-25T06:30:50;8.20;;;3.08;;
7737;SDS011;29398;45.328;5.558;2023-04-25T06:31:53;6.43;;;2.78;;
7737;SDS011;29398;45.328;5.558;2023-04-25T06:32:56;4.45;;;2.83;;
7737;SDS011;29398;45.328;5.558;2023-04-25T06:33:58;7.90;;;3.33;;
7737;SDS011;29398;45.328;5.558;2023-04-25T06:35:02;7.00;;;2.78;;
7737;SDS011;29398;45.328;5.558;2023-04-25T06:36:04;6.18;;;2.92;;
7737;SDS011;29398;45.328;5.558;2023-04-25T06:37:07;7.60;;;2.88;;
7737;SDS011;29398;45.328;5.558;2023-04-25T06:38:09;6.28;;;3.00;;
7737;SDS011;29398;45.328;5.558;2023-04-25T06:39:13;5.78;;;2.58;;
7737;SDS011;29398;45.328;5.558;2023-04-25T06:40:14;6.30;;;2.65;;
7737;SDS011;29398;45.328;5.558;2023-04-25T06:41:19;7.20;;;3.00;;
7737;SDS011;29398;45.328;5.558;2023-04-25T06:42:21;6.45;;;2.60;;
7737;SDS011;29398;45.328;5.558;2023-04-25T06:43:32;5.40;;;3.10;;